Time;durP1;ratioP1;P1;durP2;ratioP2;P2;SDS_P1;SDS_P2;PMS_P1;PMS_P2;Temp;Humidity;BMP_temperature;BMP_pressure;BME280_temperature;BME280_humidity;BME280_pressure;Samples;Min_cycle;Max_cycle;Signal;HPM_P1;HPM_P2
2023/01/17 00:03:06;;;;;;;2.73;2.40;;;;;4.80;93385.00;;;;8302031;28;20225;-69
2023/01/17 00:11:35;;;;;;;3.10;1.60;;;;;5.00;93392.00;;;;8300388;28;20516;-69
2023/01/17 00:15:43;;;;;;;2.73;1.30;;;;;5.00;93395.00;;;;8301335;28;20249;-69
2023/01/17 01:37:21;;;;;;;1.50;1.40;;;;;4.20;93498.00;;;;8299581;28;20604;-69
2023/01/17 01:41:24;;;;;;;1.70;1.10;;;;;4.20;93507.00;;;;8299443;28;20194;-69
2023/01/17 01:45:31;;;;;;;2.10;1.30;;;;;4.20;93490.00;;;;8277796;28;20191;-69
2023/01/17 01:49:34;;;;;;;1.33;1.20;;;;;4.20;93490.00;;;;8299958;28;20218;-68
2023/01/17 01:53:42;;;;;;;1.30;1.30;;;;;4.10;93487.00;;;;8298310;28;20272;-68
2023/01/17 01:57:49;;;;;;;2.20;1.20;;;;;4.10;93492.00;;;;8298358;28;20198;-68
2023/01/17 02:01:56;;;;;;;1.20;1.10;;;;;4.20;93478.00;;;;8297515;28;20276;-68
2023/01/17 02:06:07;;;;;;;2.10;1.40;;;;;4.20;93486.00;;;;8298858;28;20576;-69
2023/01/17 02:10:11;;;;;;;1.10;1.10;;;;;4.20;93482.00;;;;8298168;28;20194;-68
2023/01/17 02:14:16;;;;;;;1.40;1.30;;;;;4.20;93484.00;;;;8298685;28;20559;-68
2023/01/17 02:18:34;;;;;;;1.70;1.20;;;;;4.20;93492.00;;;;8299174;28;20202;-68
2023/01/17 02:23:17;;;;;;;2.00;1.07;;;;;4.30;93489.00;;;;8298422;28;20198;-68
2023/01/17 02:27:25;;;;;;;1.33;1.10;;;;;4.30;93491.00;;;;8297532;28;20197;-68
2023/01/17 02:31:38;;;;;;;1.30;1.20;;;;;4.40;93505.00;;;;8296766;28;20220;-68
2023/01/17 02:35:51;;;;;;;1.30;1.20;;;;;4.40;93504.00;;;;8285573;28;20214;-68
2023/01/17 02:40:05;;;;;;;2.00;1.10;;;;;4.40;93497.00;;;;8304349;28;20237;-69
2023/01/17 02:44:19;;;;;;;1.27;1.20;;;;;4.30;93506.00;;;;8305091;28;20198;-69
2023/01/17 02:48:44;;;;;;;1.80;1.20;;;;;4.20;93507.00;;;;8299653;28;20198;-68
2023/01/17 02:53:04;;;;;;;1.20;1.10;;;;;4.20;93509.00;;;;8302077;28;20228;-69
2023/01/17 02:57:25;;;;;;;1.20;1.10;;;;;4.20;93516.00;;;;8303813;28;20186;-69
2023/01/17 03:01:37;;;;;;;1.10;1.10;;;;;4.20;93508.00;;;;8323814;23;20237;-71
2023/01/17 03:05:46;;;;;;;1.30;1.30;;;;;4.30;93510.00;;;;8272736;28;20241;-69
2023/01/17 03:09:58;;;;;;;1.43;1.17;;;;;4.30;93513.00;;;;8288864;28;20202;-70
2023/01/17 03:14:06;;;;;;;1.20;1.20;;;;;4.30;93517.00;;;;8287732;28;20308;-69
2023/01/17 03:18:13;;;;;;;1.20;1.20;;;;;4.30;93522.00;;;;8287539;28;20210;-69
2023/01/17 03:22:22;;;;;;;2.77;1.30;;;;;4.40;93526.00;;;;8282273;28;20198;-69
2023/01/17 03:26:25;;;;;;;1.30;1.27;;;;;4.40;93538.00;;;;8285390;28;20212;-71
2023/01/17 03:30:31;;;;;;;1.40;1.40;;;;;4.40;93547.00;;;;8287523;28;20694;-70
2023/01/17 03:34:34;;;;;;;1.40;1.30;;;;;4.40;93543.00;;;;8287090;28;20265;-70
2023/01/17 03:38:42;;;;;;;1.23;1.23;;;;;4.30;93553.00;;;;8279084;28;20205;-70
2023/01/17 03:42:45;;;;;;;2.70;1.40;;;;;4.30;93561.00;;;;8285403;28;20205;-69
2023/01/17 03:46:49;;;;;;;1.27;1.23;;;;;4.30;93556.00;;;;8294085;28;20246;-70
2023/01/17 03:50:52;;;;;;;1.43;1.33;;;;;4.30;93547.00;;;;8305162;28;20237;-70
2023/01/17 03:54:57;;;;;;;1.70;1.60;;;;;4.20;93549.00;;;;8301122;28;20229;-70
2023/01/17 03:59:03;;;;;;;1.40;1.40;;;;;4.20;93547.00;;;;8304904;28;20202;-70
2023/01/17 04:03:06;;;;;;;1.97;1.50;;;;;4.10;93553.00;;;;8319022;28;20784;-70
2023/01/17 04:07:12;;;;;;;1.40;1.40;;;;;4.00;93553.00;;;;8340203;28;20204;-71
2023/01/17 04:11:18;;;;;;;2.40;1.50;;;;;3.80;93560.00;;;;8332127;28;20262;-71
2023/01/17 04:15:21;;;;;;;2.67;1.93;;;;;3.80;93565.00;;;;8323091;28;20232;-68
2023/01/17 04:19:25;;;;;;;1.70;1.60;;;;;3.80;93573.00;;;;8329212;28;20705;-69
2023/01/17 04:23:28;;;;;;;1.63;1.53;;;;;3.80;93568.00;;;;8327189;28;20206;-72
2023/01/17 04:27:32;;;;;;;2.00;1.80;;;;;3.70;93569.00;;;;8325345;28;20201;-68
2023/01/17 04:31:39;;;;;;;1.83;1.73;;;;;3.60;93566.00;;;;8320865;28;20679;-72
2023/01/17 04:35:42;;;;;;;2.70;1.80;;;;;3.50;93560.00;;;;8319171;28;20694;-70
2023/01/17 04:39:45;;;;;;;2.80;1.87;;;;;3.40;93553.00;;;;8318987;28;20216;-69
2023/01/17 04:43:52;;;;;;;5.10;1.97;;;;;3.40;93566.00;;;;8320048;28;20989;-72
2023/01/17 04:47:55;;;;;;;2.10;1.90;;;;;3.40;93577.00;;;;8319157;28;20267;-70
2023/01/17 04:51:58;;;;;;;3.00;2.00;;;;;3.40;93579.00;;;;8316109;28;20716;-69
2023/01/17 04:56:04;;;;;;;3.03;2.10;;;;;3.40;93574.00;;;;8320777;28;20233;-68
2023/01/17 05:00:13;;;;;;;2.07;1.97;;;;;3.50;93579.00;;;;8322901;28;20757;-70
2023/01/17 05:04:19;;;;;;;2.00;1.90;;;;;3.50;93586.00;;;;8305206;28;20752;-69
2023/01/17 05:08:22;;;;;;;2.50;1.90;;;;;3.50;93587.00;;;;8317844;28;20570;-68
2023/01/17 05:12:25;;;;;;;1.63;1.60;;;;;3.60;93588.00;;;;8298737;28;20422;-69
2023/01/17 05:16:29;;;;;;;2.27;1.97;;;;;3.60;93592.00;;;;8318773;28;20225;-69
2023/01/17 05:20:32;;;;;;;5.83;1.87;;;;;3.60;93599.00;;;;8318946;28;20200;-70
2023/01/17 05:24:35;;;;;;;2.03;1.93;;;;;3.60;93599.00;;;;8314270;28;20210;-70
2023/01/17 05:28:40;;;;;;;4.13;1.80;;;;;3.60;93607.00;;;;8313622;28;20201;-70
2023/01/17 05:32:51;;;;;;;2.77;1.93;;;;;3.60;93607.00;;;;8315646;28;20239;-69
2023/01/17 05:36:55;;;;;;;2.07;1.97;;;;;3.60;93605.00;;;;8307510;28;20233;-70
2023/01/17 05:41:00;;;;;;;3.53;1.77;;;;;3.60;93613.00;;;;8313004;28;20201;-68
2023/01/17 05:45:04;;;;;;;3.50;2.10;;;;;3.50;93614.00;;;;8306789;28;20249;-70
2023/01/17 05:49:12;;;;;;;3.60;2.10;;;;;3.40;93616.00;;;;8311942;28;20212;-69
2023/01/17 05:53:16;;;;;;;5.33;2.40;;;;;3.30;93620.00;;;;8294601;28;20625;-70
2023/01/17 05:57:20;;;;;;;1.90;1.80;;;;;3.20;93626.00;;;;8286851;28;20200;-70
2023/01/17 06:01:28;;;;;;;2.20;1.90;;;;;3.10;93625.00;;;;8314729;28;20232;-69
2023/01/17 06:05:35;;;;;;;2.63;2.00;;;;;2.90;93621.00;;;;8317960;28;20650;-69
2023/01/17 06:09:39;;;;;;;4.57;2.40;;;;;2.80;93616.00;;;;8320237;28;20197;-71
2023/01/17 06:13:42;;;;;;;4.50;2.57;;;;;2.70;93618.00;;;;8311418;28;20228;-69
2023/01/17 06:17:45;;;;;;;9.53;2.77;;;;;2.60;93618.00;;;;8317655;28;20216;-70
2023/01/17 06:21:49;;;;;;;5.93;2.70;;;;;2.50;93625.00;;;;8316382;28;20205;-69
2023/01/17 06:25:54;;;;;;;7.43;2.83;;;;;2.50;93619.00;;;;8320527;28;20214;-69
2023/01/17 06:29:59;;;;;;;6.13;2.63;;;;;2.40;93633.00;;;;8316651;28;20192;-71
2023/01/17 06:34:03;;;;;;;2.40;2.20;;;;;2.30;93635.00;;;;8318816;28;20228;-69
2023/01/17 06:38:08;;;;;;;7.97;2.73;;;;;2.20;93655.00;;;;8319787;28;20686;-69
2023/01/17 06:42:15;;;;;;;4.93;2.63;;;;;2.00;93652.00;;;;8324062;28;20211;-68
2023/01/17 06:46:18;;;;;;;6.40;3.53;;;;;2.00;93655.00;;;;8322772;28;20247;-68
2023/01/17 06:50:22;;;;;;;2.80;2.20;;;;;1.90;93658.00;;;;8316072;28;20255;-69
2023/01/17 06:54:30;;;;;;;3.93;2.30;;;;;1.90;93665.00;;;;8322917;28;20891;-70
2023/01/17 06:58:38;;;;;;;4.47;2.40;;;;;1.80;93663.00;;;;8300408;28;20246;-69
2023/01/17 07:02:46;;;;;;;3.13;2.30;;;;;1.80;93651.00;;;;8321310;28;20232;-69
2023/01/17 07:06:51;;;;;;;5.00;2.77;;;;;1.70;93655.00;;;;8315081;28;20204;-68
2023/01/17 07:11:01;;;;;;;6.20;4.00;;;;;1.60;93658.00;;;;8318524;28;20200;-68
2023/01/17 07:15:05;;;;;;;5.30;2.80;;;;;1.70;93655.00;;;;8293114;28;20259;-68
2023/01/17 07:19:10;;;;;;;3.93;2.67;;;;;1.60;93663.00;;;;8319506;28;20250;-68
2023/01/17 07:23:13;;;;;;;3.57;2.33;;;;;1.70;93663.00;;;;8320288;28;20202;-68
2023/01/17 07:27:21;;;;;;;3.80;2.50;;;;;1.90;93666.00;;;;8320663;28;20204;-68
2023/01/17 07:31:27;;;;;;;6.73;2.50;;;;;2.00;93660.00;;;;8319082;28;20609;-68
2023/01/17 07:35:31;;;;;;;3.97;2.87;;;;;2.10;93652.00;;;;8317525;28;20606;-67
2023/01/17 07:39:36;;;;;;;2.90;2.53;;;;;2.10;93649.00;;;;8317985;28;20213;-68
2023/01/17 07:43:42;;;;;;;5.57;3.40;;;;;2.20;93646.00;;;;8297037;28;20247;-68
2023/01/17 07:47:49;;;;;;;6.50;2.60;;;;;2.20;93646.00;;;;8313916;28;20212;-67
2023/01/17 07:51:55;;;;;;;6.07;3.00;;;;;2.20;93652.00;;;;8318036;28;20665;-68
2023/01/17 07:56:01;;;;;;;6.87;3.43;;;;;2.30;93651.00;;;;8316453;28;20275;-67
2023/01/17 08:00:09;;;;;;;7.90;3.10;;;;;2.50;93653.00;;;;8321964;28;20205;-67
2023/01/17 08:04:17;;;;;;;5.07;3.23;;;;;2.60;93648.00;;;;8319673;28;21626;-67
2023/01/17 08:08:24;;;;;;;3.93;2.97;;;;;2.70;93646.00;;;;8320760;28;20209;-67
2023/01/17 08:12:29;;;;;;;5.13;2.63;;;;;2.60;93641.00;;;;8301283;28;20207;-67
2023/01/17 08:16:38;;;;;;;2.90;2.60;;;;;2.60;93637.00;;;;8319020;28;20251;-67
2023/01/17 08:20:45;;;;;;;5.53;2.87;;;;;2.60;93639.00;;;;8319730;28;20208;-67
2023/01/17 08:24:48;;;;;;;4.27;2.60;;;;;2.60;93639.00;;;;8320900;28;20232;-66
2023/01/17 08:28:55;;;;;;;5.23;2.77;;;;;2.70;93641.00;;;;8300207;28;20211;-66
2023/01/17 08:33:00;;;;;;;3.73;2.80;;;;;2.70;93628.00;;;;8319070;28;20955;-66
2023/01/17 08:37:04;;;;;;;7.23;2.73;;;;;2.80;93638.00;;;;8319708;28;20290;-66
2023/01/17 08:41:07;;;;;;;4.47;2.43;;;;;3.10;93628.00;;;;8319927;28;20203;-66
2023/01/17 08:45:14;;;;;;;2.70;2.50;;;;;3.40;93637.00;;;;8318287;28;20775;-66
2023/01/17 08:49:18;;;;;;;2.83;2.40;;;;;3.70;93631.00;;;;8320175;28;20213;-67
2023/01/17 08:53:22;;;;;;;6.87;3.00;;;;;4.00;93634.00;;;;8319994;28;20201;-67
2023/01/17 08:57:25;;;;;;;3.23;2.70;;;;;4.40;93648.00;;;;8318379;28;20230;-67
2023/01/17 09:01:28;;;;;;;3.77;2.47;;;;;4.60;93634.00;;;;8318053;28;20275;-67
2023/01/17 09:05:35;;;;;;;3.33;2.70;;;;;4.50;93639.00;;;;8319004;28;20299;-67
2023/01/17 09:09:38;;;;;;;3.57;2.20;;;;;4.40;93637.00;;;;8320506;28;20611;-67
2023/01/17 09:13:41;;;;;;;3.33;2.50;;;;;4.30;93628.00;;;;8318154;28;20580;-67
2023/01/17 09:17:44;;;;;;;4.50;2.10;;;;;4.30;93636.00;;;;8310774;28;20253;-67
2023/01/17 09:21:52;;;;;;;3.13;2.33;;;;;4.40;93636.00;;;;8319631;28;20647;-67
2023/01/17 09:25:56;;;;;;;3.83;2.30;;;;;4.70;93639.00;;;;8314098;28;20268;-67
2023/01/17 09:29:59;;;;;;;3.57;2.20;;;;;5.10;93636.00;;;;8312158;28;20200;-68
2023/01/17 09:34:07;;;;;;;3.40;2.30;;;;;5.40;93637.00;;;;8298318;28;20758;-68
2023/01/17 09:38:16;;;;;;;2.70;2.40;;;;;5.40;93640.00;;;;8315429;28;20219;-69
2023/01/17 09:42:27;;;;;;;2.00;1.90;;;;;5.40;93640.00;;;;8317712;28;20225;-69
2023/01/17 09:46:33;;;;;;;2.20;2.10;;;;;5.50;93647.00;;;;8318369;28;20842;-69
2023/01/17 09:50:44;;;;;;;4.70;2.37;;;;;5.70;93642.00;;;;8314707;28;20206;-68
2023/01/17 09:54:49;;;;;;;2.40;2.20;;;;;5.50;93656.00;;;;8312648;28;20205;-69
2023/01/17 09:59:10;;;;;;;5.50;2.20;;;;;5.50;93664.00;;;;8314707;28;20288;-69
2023/01/17 10:03:37;;;;;;;2.70;1.83;;;;;5.50;93671.00;;;;8308618;28;20288;-69
2023/01/17 10:07:49;;;;;;;2.50;2.30;;;;;5.50;93664.00;;;;8313515;28;20198;-70
2023/01/17 10:12:08;;;;;;;2.63;2.50;;;;;5.40;93645.00;;;;8317294;28;20229;-68
2023/01/17 10:16:34;;;;;;;2.23;2.03;;;;;5.40;93641.00;;;;8310040;28;20633;-69
2023/01/17 10:20:44;;;;;;;1.63;1.63;;;;;5.30;93623.00;;;;8309379;28;20562;-69
2023/01/17 10:25:07;;;;;;;4.67;2.57;;;;;5.30;93614.00;;;;8316183;28;20244;-69
2023/01/17 10:29:16;;;;;;;3.73;2.30;;;;;5.30;93607.00;;;;8307694;28;20198;-69
2023/01/17 10:33:27;;;;;;;1.87;1.77;;;;;5.30;93600.00;;;;8312014;28;20225;-69
2023/01/17 10:37:39;;;;;;;3.97;3.63;;;;;5.20;93589.00;;;;8318643;28;20621;-69
2023/01/17 10:41:45;;;;;;;4.70;2.50;;;;;5.10;93571.00;;;;8312933;28;20201;-69
2023/01/17 10:45:53;;;;;;;4.00;2.63;;;;;5.00;93559.00;;;;8316695;28;20641;-69
2023/01/17 10:50:00;;;;;;;4.40;2.67;;;;;5.00;93557.00;;;;8308163;28;20283;-69
2023/01/17 10:54:18;;;;;;;2.60;2.40;;;;;4.90;93556.00;;;;8311431;28;20196;-69
2023/01/17 10:58:21;;;;;;;3.87;2.60;;;;;4.90;93549.00;;;;8319970;28;20763;-68
2023/01/17 11:02:31;;;;;;;5.77;2.57;;;;;4.80;93541.00;;;;8317529;28;20233;-68
2023/01/17 11:06:37;;;;;;;2.87;2.47;;;;;4.80;93538.00;;;;8323191;28;20686;-68
2023/01/17 11:11:04;;;;;;;3.80;2.20;;;;;4.70;93533.00;;;;8315400;28;20197;-68
2023/01/17 11:15:24;;;;;;;1.90;1.80;;;;;4.70;93541.00;;;;8318600;28;20231;-68
2023/01/17 11:19:35;;;;;;;2.20;2.10;;;;;5.00;93538.00;;;;8320293;28;20213;-68
2023/01/17 11:23:41;;;;;;;3.17;2.03;;;;;5.30;93541.00;;;;8319508;28;20205;-69
2023/01/17 11:28:00;;;;;;;2.40;2.03;;;;;5.60;93535.00;;;;8319326;28;20202;-69
2023/01/17 11:32:29;;;;;;;3.13;2.20;;;;;5.80;93523.00;;;;8318598;28;20205;-70
2023/01/17 11:36:34;;;;;;;2.50;2.00;;;;;6.00;93515.00;;;;8321018;28;20267;-70
2023/01/17 11:40:39;;;;;;;2.73;2.00;;;;;6.10;93512.00;;;;8319618;28;20201;-70
2023/01/17 11:44:45;;;;;;;4.03;2.10;;;;;6.40;93502.00;;;;8319687;28;20194;-70
2023/01/17 11:48:51;;;;;;;1.80;1.70;;;;;6.30;93493.00;;;;8318827;28;20212;-70
2023/01/17 11:53:07;;;;;;;1.80;1.70;;;;;6.40;93494.00;;;;8316204;28;20198;-70
2023/01/17 11:57:22;;;;;;;1.70;1.60;;;;;6.80;93487.00;;;;8319033;28;20225;-70
2023/01/17 12:01:37;;;;;;;1.50;1.40;;;;;7.10;93480.00;;;;8316869;28;20225;-71
2023/01/17 12:05:53;;;;;;;1.60;1.50;;;;;7.30;93471.00;;;;8316765;28;20244;-70
2023/01/17 12:10:06;;;;;;;1.67;1.57;;;;;7.30;93466.00;;;;8320312;28;20210;-70
2023/01/17 12:14:19;;;;;;;2.50;1.90;;;;;7.30;93464.00;;;;8319069;28;20202;-71
2023/01/17 12:18:40;;;;;;;3.57;1.77;;;;;7.20;93452.00;;;;8316406;28;20299;-70
2023/01/17 12:23:21;;;;;;;1.63;1.60;;;;;7.10;93459.00;;;;8294750;28;20255;-70
2023/01/17 12:27:33;;;;;;;2.53;1.70;;;;;7.00;93461.00;;;;8320137;28;20225;-70
2023/01/17 12:31:40;;;;;;;3.63;1.83;;;;;6.90;93454.00;;;;8316678;28;20198;-71
2023/01/17 12:35:49;;;;;;;2.50;1.70;;;;;6.90;93445.00;;;;8300948;28;20202;-70
2023/01/17 12:39:58;;;;;;;2.37;1.73;;;;;6.90;93453.00;;;;8312734;28;20259;-71
2023/01/17 12:44:05;;;;;;;1.83;1.67;;;;;6.80;93446.00;;;;8314491;28;20205;-71
2023/01/17 12:48:12;;;;;;;1.90;1.80;;;;;6.80;93443.00;;;;8313915;28;20216;-71
2023/01/17 12:52:21;;;;;;;4.20;1.70;;;;;6.80;93446.00;;;;8312370;28;20208;-71
2023/01/17 12:56:30;;;;;;;1.63;1.53;;;;;6.90;93441.00;;;;8319848;28;20769;-71
2023/01/17 13:00:41;;;;;;;2.07;1.70;;;;;6.90;93445.00;;;;8319240;28;20256;-71
2023/01/17 13:04:47;;;;;;;1.70;1.60;;;;;7.10;93440.00;;;;8319390;28;20733;-71
2023/01/17 13:09:04;;;;;;;1.73;1.63;;;;;7.20;93427.00;;;;8311369;28;20225;-71
2023/01/17 13:13:21;;;;;;;1.60;1.50;;;;;7.10;93394.00;;;;8318543;28;20201;-71
2023/01/17 13:17:41;;;;;;;1.70;1.60;;;;;7.00;93408.00;;;;8317497;28;20735;-71
2023/01/17 13:21:47;;;;;;;1.70;1.60;;;;;6.90;93401.00;;;;8301167;28;20193;-70
2023/01/17 13:25:51;;;;;;;1.73;1.63;;;;;6.90;93416.00;;;;8316870;28;20201;-71
2023/01/17 13:30:21;;;;;;;2.73;2.33;;;;;7.00;93404.00;;;;8318361;28;20194;-71
2023/01/17 13:34:47;;;;;;;1.70;1.60;;;;;6.80;93408.00;;;;8298516;28;20251;-72
2023/01/17 13:39:07;;;;;;;1.80;1.50;;;;;6.60;93401.00;;;;8311058;28;20823;-71
2023/01/17 13:43:14;;;;;;;2.00;1.50;;;;;6.60;93400.00;;;;8310795;28;20199;-71
2023/01/17 13:47:37;;;;;;;2.30;1.83;;;;;6.50;93397.00;;;;8316821;28;20231;-71
2023/01/17 13:52:08;;;;;;;2.50;1.70;;;;;6.50;93386.00;;;;8316495;28;20205;-71
2023/01/17 13:56:22;;;;;;;2.10;1.70;;;;;6.50;93374.00;;;;8315566;28;20213;-71
2023/01/17 14:00:53;;;;;;;1.70;1.60;;;;;6.40;93373.00;;;;8314434;28;20243;-71
2023/01/17 14:05:13;;;;;;;1.83;1.70;;;;;6.40;93373.00;;;;8314920;28;20280;-71
2023/01/17 14:09:21;;;;;;;2.83;1.40;;;;;6.40;93373.00;;;;8312851;28;20202;-71
2023/01/17 14:13:34;;;;;;;3.63;2.63;;;;;6.40;93368.00;;;;8313260;28;20791;-72
2023/01/17 14:17:50;;;;;;;1.80;1.70;;;;;6.40;93363.00;;;;8315858;28;20263;-71
2023/01/17 14:22:21;;;;;;;1.63;1.50;;;;;6.30;93372.00;;;;8316516;28;20710;-71
2023/01/17 14:26:48;;;;;;;1.67;1.57;;;;;6.20;93358.00;;;;8311719;28;20224;-71
2023/01/17 14:30:54;;;;;;;1.97;1.67;;;;;6.20;93349.00;;;;8307994;28;20205;-71
2023/01/17 14:34:59;;;;;;;3.07;1.77;;;;;6.00;93353.00;;;;8322778;28;20190;-70
2023/01/17 14:39:19;;;;;;;2.50;1.70;;;;;5.90;93349.00;;;;8321710;28;20248;-71
2023/01/17 14:43:26;;;;;;;2.03;1.50;;;;;5.80;93351.00;;;;8320783;28;20266;-71
2023/01/17 14:47:32;;;;;;;3.37;2.60;;;;;5.70;93342.00;;;;8320380;28;20240;-70
2023/01/17 14:51:38;;;;;;;12.87;6.03;;;;;5.60;93338.00;;;;8322420;28;20205;-70
2023/01/17 14:55:51;;;;;;;3.27;2.33;;;;;5.60;93332.00;;;;8321906;28;20264;-71
2023/01/17 15:04:25;;;;;;;2.40;2.10;;;;;5.40;93318.00;;;;8433575;27;20632;-72
2023/01/17 15:08:35;;;;;;;5.13;2.17;;;;;5.30;93294.00;;;;8395563;28;20200;-72
2023/01/17 15:12:38;;;;;;;4.60;2.20;;;;;5.10;93292.00;;;;8410146;28;20211;-71
2023/01/17 15:16:42;;;;;;;2.23;2.03;;;;;5.00;93296.00;;;;8408103;28;20195;-72
2023/01/17 15:20:51;;;;;;;3.20;2.37;;;;;4.90;93298.00;;;;8394717;28;20272;-72
2023/01/17 15:24:57;;;;;;;6.80;3.20;;;;;4.80;93301.00;;;;8400342;28;20268;-71
2023/01/17 15:29:04;;;;;;;5.80;3.73;;;;;4.70;93301.00;;;;8397443;28;20195;-72
2023/01/17 15:33:19;;;;;;;9.03;4.80;;;;;4.60;93309.00;;;;8393072;28;20205;-71
2023/01/17 15:37:31;;;;;;;10.07;5.57;;;;;4.40;93300.00;;;;8406760;28;20204;-73
2023/01/17 15:41:39;;;;;;;5.03;3.87;;;;;4.20;93287.00;;;;8400818;28;20219;-71
2023/01/17 15:46:05;;;;;;;2.90;2.60;;;;;4.10;93288.00;;;;8401662;28;20197;-71
2023/01/17 15:50:29;;;;;;;2.87;2.27;;;;;3.90;93275.00;;;;8396853;28;20325;-70
2023/01/17 15:54:43;;;;;;;2.77;2.23;;;;;3.80;93279.00;;;;8400033;28;20249;-72
2023/01/17 15:58:49;;;;;;;2.60;2.10;;;;;3.60;93283.00;;;;8397528;28;21746;-72
2023/01/17 16:02:55;;;;;;;2.40;2.20;;;;;3.50;93284.00;;;;8394847;28;20234;-71
2023/01/17 16:07:10;;;;;;;7.80;4.50;;;;;3.30;93284.00;;;;8399854;28;20210;-71
2023/01/17 16:11:20;;;;;;;3.50;3.10;;;;;3.30;93290.00;;;;8397765;28;20553;-73
2023/01/17 16:15:27;;;;;;;4.57;2.00;;;;;3.20;93285.00;;;;8378859;28;20199;-73
2023/01/17 16:19:33;;;;;;;2.50;2.30;;;;;3.20;93284.00;;;;8383502;28;20206;-72
2023/01/17 16:23:36;;;;;;;3.73;2.30;;;;;3.20;93275.00;;;;8384905;28;20229;-71
2023/01/17 16:27:42;;;;;;;2.33;1.93;;;;;3.20;93266.00;;;;8386876;28;20196;-71
2023/01/17 16:31:47;;;;;;;11.13;5.53;;;;;3.10;93262.00;;;;8402687;28;20624;-71
2023/01/17 16:35:53;;;;;;;14.87;6.90;;;;;3.10;93251.00;;;;8401897;28;20191;-71
2023/01/17 16:39:57;;;;;;;7.47;4.53;;;;;3.10;93248.00;;;;8401892;28;20221;-70
2023/01/17 16:44:04;;;;;;;7.47;3.80;;;;;3.10;93244.00;;;;8402129;28;20216;-71
2023/01/17 16:48:08;;;;;;;3.83;2.50;;;;;3.20;93240.00;;;;8396763;28;20226;-70
2023/01/17 16:52:11;;;;;;;4.13;3.57;;;;;3.10;93231.00;;;;8401441;28;20202;-70
2023/01/17 16:56:19;;;;;;;2.40;2.20;;;;;3.10;93220.00;;;;8400688;28;20273;-71
2023/01/17 17:00:26;;;;;;;3.33;2.17;;;;;3.10;93212.00;;;;8401492;28;20212;-70
2023/01/17 17:04:31;;;;;;;4.00;2.83;;;;;3.10;93212.00;;;;8400406;28;20231;-70
2023/01/17 17:08:36;;;;;;;6.33;3.33;;;;;3.00;93213.00;;;;8400355;28;20202;-70
2023/01/17 17:12:39;;;;;;;8.17;4.27;;;;;2.90;93222.00;;;;8401154;28;20200;-70
2023/01/17 17:16:46;;;;;;;10.83;4.37;;;;;2.80;93226.00;;;;8400619;28;20196;-70
2023/01/17 17:21:04;;;;;;;4.77;3.37;;;;;2.70;93232.00;;;;8401247;28;20203;-70
2023/01/17 17:25:07;;;;;;;5.33;3.40;;;;;2.70;93229.00;;;;8399044;28;20225;-70
2023/01/17 17:29:12;;;;;;;5.60;3.07;;;;;2.60;93227.00;;;;8399878;28;20240;-70
2023/01/17 17:33:17;;;;;;;6.67;3.83;;;;;2.50;93221.00;;;;8399413;28;20199;-70
2023/01/17 17:37:27;;;;;;;7.63;4.07;;;;;2.50;93231.00;;;;8400088;28;20202;-70
2023/01/17 17:41:32;;;;;;;8.33;4.63;;;;;2.50;93227.00;;;;8399486;28;20197;-69
2023/01/17 17:45:35;;;;;;;13.33;6.07;;;;;2.50;93225.00;;;;8400168;28;20641;-70
2023/01/17 17:49:42;;;;;;;9.97;5.10;;;;;2.50;93228.00;;;;8399280;28;20194;-69
2023/01/17 17:53:46;;;;;;;6.50;3.90;;;;;2.40;93235.00;;;;8398763;28;20323;-69
2023/01/17 17:57:49;;;;;;;4.90;3.50;;;;;2.40;93240.00;;;;8399440;28;20199;-69
2023/01/17 18:01:53;;;;;;;6.10;4.30;;;;;2.40;93238.00;;;;8399355;28;20316;-69
2023/01/17 18:06:05;;;;;;;4.30;3.30;;;;;2.50;93240.00;;;;8399160;28;20345;-69
2023/01/17 18:10:10;;;;;;;6.87;3.20;;;;;2.50;93241.00;;;;8398958;28;20228;-69
2023/01/17 18:14:14;;;;;;;7.57;4.03;;;;;2.60;93254.00;;;;8399223;28;20241;-69
2023/01/17 18:18:17;;;;;;;3.73;3.10;;;;;2.70;93260.00;;;;8398658;28;20203;-69
2023/01/17 18:22:23;;;;;;;4.80;3.33;;;;;2.70;93263.00;;;;8398652;28;20224;-69
2023/01/17 18:26:31;;;;;;;8.77;4.73;;;;;2.70;93265.00;;;;8399415;28;20627;-69
2023/01/17 18:30:37;;;;;;;7.87;4.00;;;;;2.80;93266.00;;;;8398243;28;20199;-69
2023/01/17 18:34:41;;;;;;;5.37;3.33;;;;;2.80;93272.00;;;;8397818;28;20203;-69
2023/01/17 18:38:47;;;;;;;5.97;3.57;;;;;2.80;93283.00;;;;8398239;28;20194;-70
2023/01/17 18:42:58;;;;;;;5.93;3.57;;;;;2.80;93274.00;;;;8399188;28;20663;-70
2023/01/17 18:47:04;;;;;;;5.63;2.80;;;;;2.80;93274.00;;;;8395761;28;20195;-68
2023/01/17 18:51:09;;;;;;;4.57;3.43;;;;;2.80;93267.00;;;;8397965;28;20194;-69
2023/01/17 18:55:16;;;;;;;5.17;3.70;;;;;2.70;93268.00;;;;8397582;28;20199;-68
2023/01/17 18:59:20;;;;;;;8.63;4.03;;;;;2.80;93271.00;;;;8395530;28;20182;-68
2023/01/17 19:03:30;;;;;;;7.10;3.80;;;;;2.70;93272.00;;;;8396480;28;20230;-68
2023/01/17 19:07:33;;;;;;;6.80;4.03;;;;;2.70;93275.00;;;;8397326;28;20697;-69
2023/01/17 19:11:41;;;;;;;11.80;5.80;;;;;2.70;93272.00;;;;8396436;28;20195;-70
2023/01/17 19:15:44;;;;;;;13.53;5.47;;;;;2.80;93280.00;;;;8395978;28;20249;-69
2023/01/17 19:19:51;;;;;;;9.57;4.17;;;;;2.80;93291.00;;;;8397361;28;20321;-69
2023/01/17 19:23:54;;;;;;;5.90;4.07;;;;;2.80;93290.00;;;;8396903;28;20248;-70
2023/01/17 19:28:04;;;;;;;6.50;3.97;;;;;2.80;93295.00;;;;8397615;28;20274;-69
2023/01/17 19:32:08;;;;;;;5.40;3.70;;;;;2.90;93297.00;;;;8397563;28;20300;-68
2023/01/17 19:36:15;;;;;;;8.30;4.47;;;;;2.90;93304.00;;;;8397293;28;20655;-68
2023/01/17 19:40:20;;;;;;;7.07;3.70;;;;;2.90;93314.00;;;;8394253;28;20595;-68
2023/01/17 19:44:25;;;;;;;8.67;3.90;;;;;3.00;93311.00;;;;8396590;28;20277;-68
2023/01/17 19:48:28;;;;;;;3.90;3.30;;;;;3.00;93305.00;;;;8399120;28;20199;-69
2023/01/17 19:52:31;;;;;;;8.27;3.70;;;;;3.00;93314.00;;;;8402156;28;20202;-69
2023/01/17 19:56:34;;;;;;;5.27;4.10;;;;;3.00;93317.00;;;;8401559;28;20241;-68
2023/01/17 20:00:39;;;;;;;7.43;4.10;;;;;3.00;93317.00;;;;8403493;28;20537;-68
2023/01/17 20:04:48;;;;;;;5.10;3.60;;;;;3.00;93302.00;;;;8403019;28;20272;-69
2023/01/17 20:08:56;;;;;;;4.63;3.23;;;;;2.90;93304.00;;;;8394980;28;20199;-69
2023/01/17 20:13:00;;;;;;;6.33;3.53;;;;;2.90;93313.00;;;;8401143;28;20575;-68
2023/01/17 20:17:06;;;;;;;11.10;5.07;;;;;2.90;93315.00;;;;8401823;28;20302;-68
2023/01/17 20:21:13;;;;;;;9.33;5.00;;;;;2.90;93325.00;;;;8400851;28;20187;-68
2023/01/17 20:25:18;;;;;;;29.70;10.60;;;;;2.90;93323.00;;;;8396879;28;20230;-68
2023/01/17 20:29:26;;;;;;;8.20;4.27;;;;;2.90;93324.00;;;;8400507;28;20236;-68
2023/01/17 20:33:34;;;;;;;12.40;7.10;;;;;2.90;93327.00;;;;8401534;28;20279;-69
2023/01/17 20:37:37;;;;;;;6.87;4.33;;;;;3.00;93325.00;;;;8397875;28;20309;-69
2023/01/17 20:41:44;;;;;;;9.70;5.03;;;;;2.90;93319.00;;;;8400516;28;20189;-69
2023/01/17 20:46:03;;;;;;;7.47;4.17;;;;;2.90;93326.00;;;;8399952;28;20743;-69
2023/01/17 20:50:09;;;;;;;7.00;4.57;;;;;2.90;93319.00;;;;8401487;28;20594;-69
2023/01/17 20:54:14;;;;;;;9.27;4.20;;;;;3.00;93327.00;;;;8400421;28;20194;-69
2023/01/17 20:58:17;;;;;;;7.67;4.50;;;;;3.00;93331.00;;;;8399978;28;20663;-69
2023/01/17 21:02:20;;;;;;;5.23;3.60;;;;;3.00;93321.00;;;;8401526;28;20224;-67
2023/01/17 21:06:28;;;;;;;3.87;3.13;;;;;3.10;93319.00;;;;8399719;28;20219;-67
2023/01/17 21:10:31;;;;;;;6.70;3.90;;;;;3.00;93305.00;;;;8400395;28;20196;-67
2023/01/17 21:14:36;;;;;;;7.90;3.47;;;;;3.00;93312.00;;;;8400588;28;20192;-67
2023/01/17 21:18:48;;;;;;;9.73;4.20;;;;;2.90;93297.00;;;;8400175;28;20204;-67
2023/01/17 21:22:59;;;;;;;5.70;3.40;;;;;2.80;93295.00;;;;8399869;28;20529;-68
2023/01/17 21:27:02;;;;;;;5.53;3.53;;;;;2.70;93292.00;;;;8399787;28;20246;-67
2023/01/17 21:31:16;;;;;;;5.30;3.70;;;;;2.60;93294.00;;;;8398658;28;20228;-67
2023/01/17 21:35:21;;;;;;;5.67;3.83;;;;;2.40;93282.00;;;;8398487;28;20217;-67
2023/01/17 21:39:28;;;;;;;8.80;3.70;;;;;2.40;93294.00;;;;8399508;28;20622;-67
2023/01/17 21:43:33;;;;;;;6.07;4.67;;;;;2.30;93303.00;;;;8399366;28;20210;-67
2023/01/17 21:47:40;;;;;;;10.13;5.63;;;;;2.30;93305.00;;;;8400313;28;20579;-67
2023/01/17 22:00:35;;;;;;;6.63;4.30;;;;;2.50;93315.00;;;;8398224;28;20204;-67
2023/01/17 22:04:38;;;;;;;8.70;3.90;;;;;2.50;93320.00;;;;8398218;28;20226;-67
2023/01/17 22:08:41;;;;;;;7.73;4.27;;;;;2.60;93318.00;;;;8396473;28;20199;-67
2023/01/17 22:12:46;;;;;;;5.93;3.67;;;;;2.70;93313.00;;;;8397832;28;20221;-67
2023/01/17 22:16:49;;;;;;;6.83;4.20;;;;;2.70;93321.00;;;;8397757;28;20189;-67
2023/01/17 22:20:55;;;;;;;6.43;4.30;;;;;2.70;93324.00;;;;8398146;28;20290;-67
2023/01/17 22:25:00;;;;;;;7.47;4.43;;;;;2.70;93325.00;;;;8397557;28;20279;-67
2023/01/17 22:29:04;;;;;;;6.63;4.13;;;;;2.80;93318.00;;;;8379924;28;20644;-67
2023/01/17 22:33:07;;;;;;;6.87;4.20;;;;;2.80;93322.00;;;;8396816;28;20202;-67